Terminal Aerodrome Forecast
Issued by NWS

Home | Current Version | Previous Version | Graphics & Text | Print | Product List | Glossary On
Versions: 1 2 3 4 5 6 7 8 9 10 11 12 13 14 15
335
FTUS43 KGRB 061140
TAFMTW
TAF
KMTW 061140Z 0612/0712 23009KT P6SM SCT020 BKN050
      TEMPO 0612/0616 5SM -SN BR BKN022
     FM061600 25008KT P6SM BKN020
     FM070100 20008KT P6SM SCT020 OVC050=

USA.gov is the U.S. government's official web portal to all federal, state and local government web resources and services.